createdAt,value
2018-11-12T00:01:37.074Z,13.22
2018-11-12T00:04:05.684Z,13.93
2018-11-12T00:06:34.107Z,12.83
2018-11-12T00:09:02.551Z,9.57
2018-11-12T00:11:30.996Z,14.10
2018-11-12T00:13:59.408Z,12.13
2018-11-12T00:16:27.812Z,13.08
2018-11-12T00:18:56.211Z,10.70
2018-11-12T00:21:24.643Z,15.73
2018-11-12T00:23:53.068Z,11.83
2018-11-12T00:26:21.478Z,12.07
2018-11-12T00:28:50.058Z,13.17
2018-11-12T00:31:18.492Z,16.73
2018-11-12T00:33:46.879Z,12.97
2018-11-12T00:36:15.294Z,11.03
2018-11-12T00:38:43.692Z,13.57
2018-11-12T00:41:12.107Z,9.77
2018-11-12T00:43:40.235Z,11.37
2018-11-12T00:46:08.656Z,9.93
2018-11-12T00:48:36.849Z,14.83
2018-11-12T00:51:05.516Z,13.60
2018-11-12T00:53:33.944Z,10.10
2018-11-12T00:56:02.323Z,10.13
2018-11-12T00:58:30.736Z,12.90
2018-11-12T01:00:59.133Z,9.57
2018-11-12T01:03:27.560Z,14.00
2018-11-12T01:05:55.943Z,9.03
2018-11-12T01:08:24.376Z,10.07
2018-11-12T01:10:52.778Z,8.67
2018-11-12T01:13:21.171Z,8.13
2018-11-12T01:15:49.588Z,10.43
2018-11-12T01:18:17.988Z,8.33
2018-11-12T01:20:46.375Z,10.67
2018-11-12T01:23:14.783Z,11.07
2018-11-12T01:25:43.201Z,10.57
2018-11-12T01:28:11.608Z,10.70
2018-11-12T01:30:39.993Z,7.40
2018-11-12T01:33:08.412Z,10.37
2018-11-12T01:35:36.791Z,9.70
2018-11-12T01:38:05.304Z,6.53
2018-11-12T01:40:33.707Z,9.40
2018-11-12T01:43:02.096Z,7.37
2018-11-12T01:45:30.507Z,11.97
2018-11-12T01:47:58.891Z,8.10
2018-11-12T01:50:27.308Z,11.23
2018-11-12T01:52:55.716Z,10.33
2018-11-12T01:55:23.814Z,9.47
2018-11-12T01:57:52.192Z,8.80
2018-11-12T02:00:21.489Z,7.97
2018-11-12T02:02:51.032Z,9.33
2018-11-12T02:05:19.643Z,10.93
2018-11-12T02:07:48.071Z,8.07
2018-11-12T02:10:17.629Z,9.67
2018-11-12T02:12:46.256Z,8.03
2018-11-12T02:15:16.938Z,7.43
2018-11-12T02:17:46.296Z,6.77
2018-11-12T02:20:15.824Z,9.03
2018-11-12T02:22:45.095Z,8.77
2018-11-12T02:25:14.056Z,7.70
2018-11-12T02:27:42.456Z,10.37
2018-11-12T02:30:13.868Z,8.43
2018-11-12T02:32:41.980Z,9.60
2018-11-12T02:35:10.799Z,7.40
2018-11-12T02:37:39.375Z,7.00
2018-11-12T02:40:09.807Z,8.07
2018-11-12T02:42:38.196Z,8.77
2018-11-12T02:45:07.440Z,7.47
2018-11-12T02:47:35.881Z,9.30
2018-11-12T02:50:04.013Z,9.80
2018-11-12T02:52:32.391Z,7.07
2018-11-12T02:55:00.836Z,7.83
2018-11-12T02:57:29.251Z,7.87
2018-11-12T02:59:57.693Z,6.03
2018-11-12T03:02:26.110Z,6.43
2018-11-12T03:04:54.516Z,7.47
2018-11-12T03:07:22.930Z,6.73
2018-11-12T03:09:51.316Z,7.70
2018-11-12T03:12:19.729Z,7.17
2018-11-12T03:14:48.173Z,6.03
2018-11-12T03:17:16.544Z,6.57
2018-11-12T03:19:44.939Z,8.53
2018-11-12T03:22:13.340Z,6.00
2018-11-12T03:24:41.732Z,4.83
2018-11-12T03:27:10.162Z,7.43
2018-11-12T03:29:38.540Z,7.50
2018-11-12T03:32:06.968Z,6.80
2018-11-12T03:34:35.348Z,5.90
2018-11-12T03:37:03.776Z,7.10
2018-11-12T03:39:32.191Z,5.13
2018-11-12T03:42:00.616Z,5.27
2018-11-12T03:44:29.011Z,6.90
2018-11-12T03:46:57.433Z,5.10
2018-11-12T03:49:25.820Z,6.57
2018-11-12T03:51:54.212Z,5.43
2018-11-12T03:54:22.607Z,3.23
2018-11-12T03:56:51.005Z,4.73
2018-11-12T03:59:19.468Z,4.33
2018-11-12T04:01:47.835Z,5.57
2018-11-12T04:04:16.920Z,4.67
2018-11-12T04:06:46.244Z,3.97
2018-11-12T04:09:14.652Z,3.83
2018-11-12T04:11:44.396Z,4.77
2018-11-12T04:14:13.369Z,4.97
2018-11-12T04:16:43.333Z,3.90
2018-11-12T04:19:11.716Z,4.53
2018-11-12T04:21:40.119Z,4.80
2018-11-12T04:24:08.615Z,7.27
2018-11-12T04:26:37.043Z,4.60
2018-11-12T04:29:05.483Z,3.47
2018-11-12T04:31:33.868Z,3.93
2018-11-12T04:34:01.975Z,5.30
2018-11-12T04:36:30.368Z,5.10
2018-11-12T04:38:58.479Z,6.70
2018-11-12T04:41:26.887Z,4.33
2018-11-12T04:43:55.323Z,3.93
2018-11-12T04:46:23.719Z,3.50
2018-11-12T04:48:52.100Z,4.87
2018-11-12T04:51:20.509Z,4.03
2018-11-12T04:53:49.000Z,4.10
2018-11-12T04:56:17.300Z,3.17
2018-11-12T04:58:45.689Z,2.87
2018-11-12T05:01:14.076Z,2.60
2018-11-12T05:03:42.473Z,3.73
2018-11-12T05:06:10.566Z,4.30
2018-11-12T05:08:38.983Z,7.20
2018-11-12T05:11:07.424Z,3.50
2018-11-12T05:13:35.844Z,3.37
2018-11-12T05:16:04.461Z,4.97
2018-11-12T05:18:32.870Z,4.73
2018-11-12T05:21:01.244Z,4.43
2018-11-12T05:23:29.688Z,4.10
2018-11-12T05:25:58.069Z,2.87
2018-11-12T05:28:26.463Z,2.30
2018-11-12T05:30:54.840Z,2.93
2018-11-12T05:33:23.243Z,5.43
2018-11-12T05:35:51.627Z,3.50
2018-11-12T05:38:20.079Z,6.73
2018-11-12T05:40:48.467Z,3.27
2018-11-12T05:43:16.578Z,2.37
2018-11-12T05:45:44.971Z,2.73
2018-11-12T05:48:13.388Z,8.60
2018-11-12T05:50:41.767Z,2.87
2018-11-12T05:53:10.181Z,2.33
2018-11-12T05:55:38.559Z,2.60
2018-11-12T05:58:06.963Z,1.87
2018-11-12T06:00:36.296Z,2.70
2018-11-12T06:03:04.821Z,3.17
2018-11-12T06:05:33.973Z,1.73
2018-11-12T06:08:02.672Z,2.10
2018-11-12T06:10:32.023Z,2.27
2018-11-12T06:13:00.435Z,3.30
2018-11-12T06:15:28.840Z,1.70
2018-11-12T06:17:57.260Z,2.47
2018-11-12T06:20:27.022Z,3.40
2018-11-12T06:22:55.456Z,1.43
2018-11-12T06:25:25.212Z,2.00
2018-11-12T06:27:54.060Z,1.93
2018-11-12T06:30:23.770Z,1.70
2018-11-12T06:32:52.180Z,4.77
2018-11-12T06:35:21.134Z,1.93
2018-11-12T06:37:50.321Z,1.40
2018-11-12T06:40:20.972Z,2.00
2018-11-12T06:42:49.547Z,3.10
2018-11-12T06:45:19.651Z,5.70
2018-11-12T06:47:48.936Z,1.53
2018-11-12T06:50:21.864Z,1.87
2018-11-12T06:52:50.058Z,1.57
2018-11-12T06:55:18.988Z,1.50
2018-11-12T06:57:47.789Z,2.80
2018-11-12T07:00:18.620Z,6.67
2018-11-12T07:02:47.040Z,3.43
2018-11-12T07:05:15.775Z,2.30
2018-11-12T07:07:44.191Z,3.83
2018-11-12T07:10:15.029Z,1.53
2018-11-12T07:12:44.090Z,4.63
2018-11-12T07:15:13.983Z,1.17
2018-11-12T07:17:42.429Z,8.73
2018-11-12T07:20:19.144Z,4.03
2018-11-12T07:22:47.808Z,1.43
2018-11-12T07:25:17.131Z,1.50
2018-11-12T07:27:45.478Z,1.60
2018-11-12T07:30:17.808Z,1.43
2018-11-12T07:32:46.835Z,1.40
2018-11-12T07:35:15.899Z,3.17
2018-11-12T07:37:45.406Z,1.67
2018-11-12T07:40:14.544Z,1.07
2018-11-12T07:42:43.196Z,0.90
2018-11-12T07:45:16.299Z,2.00
2018-11-12T07:47:45.579Z,1.40
2018-11-12T07:50:15.333Z,4.30
2018-11-12T07:52:43.984Z,1.27
2018-11-12T07:55:13.670Z,2.20
2018-11-12T07:57:42.188Z,1.40
2018-11-12T08:00:14.231Z,1.77
2018-11-12T08:02:43.443Z,5.30
2018-11-12T08:05:12.657Z,2.10
2018-11-12T08:07:41.894Z,4.53
2018-11-12T08:10:13.179Z,2.93
2018-11-12T08:12:42.180Z,1.80
2018-11-12T08:15:12.652Z,1.00
2018-11-12T08:17:41.285Z,1.37
2018-11-12T08:20:11.892Z,2.00
2018-11-12T08:22:40.284Z,0.55
2018-11-12T08:25:09.868Z,1.90
2018-11-12T08:27:38.652Z,1.15
2018-11-12T08:30:10.796Z,0.80
2018-11-12T08:32:39.134Z,0.80
2018-11-12T08:35:07.598Z,0.47
2018-11-12T08:37:36.003Z,0.60
2018-11-12T08:40:05.219Z,0.70
2018-11-12T08:42:33.647Z,0.65
2018-11-12T08:45:02.647Z,0.45
2018-11-12T08:47:31.084Z,0.50
2018-11-12T08:49:59.776Z,1.30
2018-11-12T08:52:28.244Z,2.52
2018-11-12T08:54:56.826Z,0.72
2018-11-12T08:57:25.125Z,0.80
2018-11-12T08:59:53.256Z,0.75
2018-11-12T09:02:21.712Z,0.98
2018-11-12T09:04:49.827Z,3.27
2018-11-12T09:07:18.481Z,0.47
2018-11-12T09:09:46.711Z,0.70
2018-11-12T09:12:15.173Z,1.22
2018-11-12T09:14:43.576Z,0.42
2018-11-12T09:17:12.000Z,0.50
2018-11-12T09:19:40.376Z,0.65
2018-11-12T09:22:08.786Z,0.60
2018-11-12T09:24:37.188Z,0.62
2018-11-12T09:27:06.263Z,1.12
2018-11-12T09:29:34.704Z,4.22
2018-11-12T09:32:03.142Z,1.47
2018-11-12T09:34:31.539Z,0.80
2018-11-12T09:36:59.985Z,0.90
2018-11-12T09:39:28.393Z,1.15
2018-11-12T09:41:56.793Z,0.90
2018-11-12T09:44:25.249Z,1.72
2018-11-12T09:46:53.620Z,3.00
2018-11-12T09:49:22.020Z,1.52
2018-11-12T09:51:50.945Z,1.47
2018-11-12T09:54:19.440Z,1.62
2018-11-12T09:56:47.878Z,2.22
2018-11-12T09:59:16.337Z,1.72
2018-11-12T10:01:45.258Z,1.37
2018-11-12T10:04:13.763Z,3.10
2018-11-12T10:06:42.822Z,3.33
2018-11-12T10:09:13.763Z,1.07
2018-11-12T10:11:42.368Z,3.17
2018-11-12T10:14:11.506Z,2.30
2018-11-12T10:16:40.261Z,1.20
2018-11-12T10:19:06.150Z,2.02
2018-11-12T10:21:34.588Z,1.95
2018-11-12T10:24:02.987Z,1.37
2018-11-12T10:26:31.613Z,1.10
2018-11-12T10:29:00.014Z,1.17
2018-11-12T10:31:28.457Z,4.70
2018-11-12T10:33:56.906Z,0.78
2018-11-12T10:36:25.321Z,1.25
2018-11-12T10:38:53.732Z,1.30
2018-11-12T10:41:22.177Z,1.30
2018-11-12T10:43:50.584Z,1.00
2018-11-12T10:46:18.988Z,3.05
2018-11-12T10:48:47.383Z,1.22
2018-11-12T10:51:15.774Z,2.55
2018-11-12T10:53:50.043Z,1.55
2018-11-12T10:56:12.656Z,1.17
2018-11-12T10:58:40.843Z,0.85
2018-11-12T11:01:14.395Z,1.00
2018-11-12T11:03:46.228Z,0.80
2018-11-12T11:06:14.687Z,1.55
2018-11-12T11:08:42.813Z,1.40
2018-11-12T11:11:11.212Z,0.70
2018-11-12T11:13:39.669Z,1.52
2018-11-12T11:16:08.044Z,3.33
2018-11-12T11:18:36.473Z,1.32
2018-11-12T11:21:05.191Z,1.50
2018-11-12T11:23:33.607Z,1.62
2018-11-12T11:26:01.707Z,1.87
2018-11-12T11:28:30.136Z,1.00
2018-11-12T11:30:58.572Z,1.80
2018-11-12T11:33:26.963Z,2.35
2018-11-12T11:35:55.340Z,1.62
2018-11-12T11:38:23.744Z,1.25
2018-11-12T11:40:52.180Z,3.72
2018-11-12T11:43:20.602Z,1.10
2018-11-12T11:45:48.985Z,1.42
2018-11-12T11:48:17.517Z,1.32
2018-11-12T11:50:45.950Z,1.47
2018-11-12T11:53:14.328Z,2.37
2018-11-12T11:55:42.724Z,1.10
2018-11-12T11:58:11.156Z,0.70
2018-11-12T12:00:39.539Z,1.12
2018-11-12T12:03:07.749Z,0.60
2018-11-12T12:05:36.081Z,0.98
2018-11-12T12:08:04.601Z,4.33
2018-11-12T12:10:33.007Z,3.58
2018-11-12T12:13:01.454Z,1.20
2018-11-12T12:15:29.840Z,1.70
2018-11-12T12:17:58.227Z,1.20
2018-11-12T12:20:27.170Z,1.15
2018-11-12T12:22:55.908Z,1.70
2018-11-12T12:25:24.389Z,1.30
2018-11-12T12:27:52.791Z,0.98
2018-11-12T12:30:22.702Z,1.95
2018-11-12T12:32:52.012Z,1.70
2018-11-12T12:35:20.444Z,1.70
2018-11-12T12:37:49.032Z,1.60
2018-11-12T12:40:18.603Z,0.70
2018-11-12T12:42:47.032Z,0.95
2018-11-12T12:45:16.923Z,1.47
2018-11-12T12:47:45.622Z,0.70
2018-11-12T12:50:15.023Z,0.65
2018-11-12T12:52:43.448Z,0.50
2018-11-12T12:55:12.910Z,0.37
2018-11-12T12:57:42.133Z,0.70
2018-11-12T13:00:16.315Z,0.55
2018-11-12T13:02:44.986Z,0.90
2018-11-12T13:05:13.453Z,0.70
2018-11-12T13:07:42.000Z,0.75
2018-11-12T13:10:12.904Z,0.60
2018-11-12T13:12:41.567Z,2.75
2018-11-12T13:15:11.971Z,2.80
2018-11-12T13:17:40.399Z,3.17
2018-11-12T13:20:10.111Z,1.02
2018-11-12T13:22:38.519Z,0.80
2018-11-12T13:25:07.724Z,2.42
2018-11-12T13:27:36.118Z,1.82
2018-11-12T13:30:06.657Z,0.57
2018-11-12T13:32:35.088Z,2.08
2018-11-12T13:35:03.574Z,1.95
2018-11-12T13:37:32.007Z,3.12
2018-11-12T13:40:00.448Z,1.98
2018-11-12T13:42:28.923Z,1.00
2018-11-12T13:44:57.407Z,1.92
2018-11-12T13:47:25.800Z,2.72
2018-11-12T13:49:53.959Z,0.80
2018-11-12T13:52:22.326Z,1.02
2018-11-12T13:54:50.759Z,1.67
2018-11-12T13:57:19.140Z,1.15
2018-11-12T13:59:47.612Z,0.60
2018-11-12T14:02:16.024Z,1.02
2018-11-12T14:04:44.447Z,2.15
2018-11-12T14:07:12.836Z,3.67
2018-11-12T14:09:41.309Z,1.40
2018-11-12T14:12:09.720Z,1.82
2018-11-12T14:14:38.197Z,1.12
2018-11-12T14:17:06.619Z,2.45
2018-11-12T14:19:34.995Z,1.45
2018-11-12T14:22:03.431Z,0.90
2018-11-12T14:24:31.820Z,0.88
2018-11-12T14:26:59.929Z,1.40
2018-11-12T14:29:28.305Z,1.45
2018-11-12T14:31:56.407Z,1.25
2018-11-12T14:34:24.836Z,2.35
2018-11-12T14:36:53.271Z,1.35
2018-11-12T14:39:21.740Z,3.35
2018-11-12T14:41:50.159Z,1.67
2018-11-12T14:44:18.532Z,2.62
2018-11-12T14:46:46.967Z,3.40
2018-11-12T14:49:15.384Z,2.08
2018-11-12T14:51:43.835Z,0.95
2018-11-12T14:54:12.230Z,1.40
2018-11-12T14:56:40.724Z,2.65
2018-11-12T14:59:09.135Z,1.82
2018-11-12T15:01:37.591Z,6.47
2018-11-12T15:04:06.081Z,1.37
2018-11-12T15:06:35.765Z,1.50
2018-11-12T15:09:06.584Z,1.20
2018-11-12T15:11:35.144Z,2.98
2018-11-12T15:14:03.527Z,4.17
2018-11-12T15:16:31.956Z,4.08
2018-11-12T15:19:00.364Z,13.98
2018-11-12T15:21:28.473Z,9.13
2018-11-12T15:23:57.004Z,11.45
2018-11-12T15:26:25.496Z,7.72
2018-11-12T15:28:53.879Z,10.48
2018-11-12T15:31:22.276Z,7.33
2018-11-12T15:33:50.778Z,11.65
2018-11-12T15:36:19.294Z,11.90
2018-11-12T15:38:47.668Z,12.95
2018-11-12T15:41:16.148Z,9.08
2018-11-12T15:43:44.594Z,14.80
2018-11-12T15:46:13.016Z,9.90
2018-11-12T15:48:41.404Z,12.25
2018-11-12T15:51:09.834Z,12.75
2018-11-12T15:53:38.240Z,7.67
2018-11-12T15:56:06.662Z,8.63
2018-11-12T15:58:35.359Z,12.10
2018-11-12T16:01:03.908Z,11.08
2018-11-12T16:03:32.442Z,10.78
2018-11-12T16:06:00.615Z,12.10
2018-11-12T16:08:29.172Z,13.90
2018-11-12T16:10:57.860Z,11.20
2018-11-12T16:13:28.250Z,11.83
2018-11-12T16:15:57.481Z,12.53
2018-11-12T16:18:25.591Z,13.58
2018-11-12T16:20:54.028Z,16.02
2018-11-12T16:23:22.464Z,18.15
2018-11-12T16:25:50.932Z,15.32
2018-11-12T16:28:19.752Z,17.37
2018-11-12T16:30:48.577Z,17.35
2018-11-12T16:33:16.969Z,19.52
2018-11-12T16:35:46.704Z,35.52
2018-11-12T16:38:16.911Z,16.90
2018-11-12T16:43:21.676Z,15.70
2018-11-12T16:45:49.882Z,15.40
2018-11-12T16:48:18.888Z,13.60
2018-11-12T16:50:47.893Z,12.13
2018-11-12T16:53:20.212Z,14.15
2018-11-12T16:55:48.343Z,11.35
2018-11-12T16:58:18.978Z,13.62
2018-11-12T17:00:49.639Z,12.88
2018-11-12T17:03:18.756Z,12.28
2018-11-12T17:05:48.951Z,15.93
2018-11-12T17:08:18.347Z,15.90
2018-11-12T17:10:47.815Z,13.15
2018-11-12T17:13:17.936Z,14.35
2018-11-12T17:15:46.961Z,20.57
2018-11-12T17:18:15.685Z,18.42
2018-11-12T17:20:44.603Z,17.45
2018-11-12T17:23:13.127Z,15.25
2018-11-12T17:25:41.492Z,14.80
2018-11-12T17:28:09.622Z,19.30
2018-11-12T17:30:38.859Z,21.27
2018-11-12T17:33:07.298Z,16.57
2018-11-12T17:35:35.989Z,17.57
2018-11-12T17:38:05.594Z,18.02
2018-11-12T17:40:34.017Z,17.92
2018-11-12T17:43:02.505Z,22.30
2018-11-12T17:45:30.586Z,15.58
2018-11-12T17:47:59.102Z,11.08
2018-11-12T17:50:28.243Z,15.03
2018-11-12T17:52:58.169Z,12.30
2018-11-12T17:55:27.029Z,15.83
2018-11-12T17:57:55.427Z,13.98
2018-11-12T18:00:29.223Z,11.03
2018-11-12T18:02:57.645Z,13.00
2018-11-12T18:05:26.325Z,13.48
2018-11-12T18:07:54.846Z,12.80
2018-11-12T18:10:23.184Z,14.40
2018-11-12T18:12:51.620Z,9.88
2018-11-12T18:15:20.856Z,13.75
2018-11-12T18:17:49.453Z,13.38
2018-11-12T18:20:18.612Z,12.28
2018-11-12T18:22:46.915Z,20.50
2018-11-12T18:25:15.759Z,14.93
2018-11-12T18:27:44.090Z,13.62
2018-11-12T18:30:16.813Z,8.13
2018-11-12T18:32:46.224Z,13.43
2018-11-12T18:35:14.432Z,9.90
2018-11-12T18:37:42.575Z,13.08
2018-11-12T18:40:12.088Z,13.95
2018-11-12T18:42:40.507Z,13.60
2018-11-12T18:45:12.360Z,12.37
2018-11-12T18:47:40.680Z,15.40
2018-11-12T18:50:12.223Z,11.30
2018-11-12T18:52:40.687Z,13.75
2018-11-12T18:55:09.516Z,14.95
2018-11-12T18:57:38.292Z,12.80
2018-11-12T19:00:08.750Z,12.30
2018-11-12T19:02:37.178Z,14.20
2018-11-12T19:05:08.934Z,15.43
2018-11-12T19:07:37.699Z,16.80
2018-11-12T19:10:08.696Z,11.85
2018-11-12T19:12:37.119Z,7.53
2018-11-12T19:15:07.661Z,4.45
2018-11-12T19:17:36.088Z,4.10
2018-11-12T19:20:05.483Z,7.17
2018-11-12T19:22:34.031Z,2.87
2018-11-12T19:25:02.139Z,7.22
2018-11-12T19:27:30.952Z,3.95
2018-11-12T19:29:59.942Z,6.03
2018-11-12T19:32:29.052Z,6.15
2018-11-12T19:34:57.416Z,7.05
2018-11-12T19:37:25.819Z,6.37
2018-11-12T19:39:53.932Z,5.05
2018-11-12T19:42:22.061Z,7.50
2018-11-12T19:44:50.456Z,5.33
2018-11-12T19:47:18.876Z,7.85
2018-11-12T19:49:47.279Z,7.87
2018-11-12T19:52:15.704Z,5.40
2018-11-12T19:54:43.807Z,10.18
2018-11-12T19:57:12.212Z,6.22
2018-11-12T19:59:40.595Z,3.30
2018-11-12T20:02:09.065Z,2.67
2018-11-12T20:04:37.607Z,2.10
2018-11-12T20:07:06.061Z,1.47
2018-11-12T20:09:34.502Z,1.98
2018-11-12T20:12:02.951Z,2.20
2018-11-12T20:14:31.364Z,3.55
2018-11-12T20:16:59.775Z,2.12
2018-11-12T20:19:28.168Z,3.08
2018-11-12T20:21:56.591Z,3.20
2018-11-12T20:24:24.992Z,3.27
2018-11-12T20:26:53.372Z,4.03
2018-11-12T20:29:21.811Z,2.75
2018-11-12T20:31:50.202Z,3.17
2018-11-12T20:34:18.640Z,2.55
2018-11-12T20:36:47.036Z,1.40
2018-11-12T20:39:15.548Z,1.87
2018-11-12T20:41:43.940Z,2.62
2018-11-12T20:44:12.359Z,1.47
2018-11-12T20:46:40.763Z,2.33
2018-11-12T20:49:08.876Z,2.83
2018-11-12T20:51:37.252Z,1.80
2018-11-12T20:54:05.724Z,2.00
2018-11-12T20:56:34.169Z,3.62
2018-11-12T20:59:02.583Z,4.85
2018-11-12T21:01:30.708Z,2.85
2018-11-12T21:03:59.107Z,2.98
2018-11-12T21:06:27.485Z,1.98
2018-11-12T21:08:55.931Z,2.17
2018-11-12T21:11:24.380Z,1.98
2018-11-12T21:13:52.768Z,2.58
2018-11-12T21:16:21.176Z,2.02
2018-11-12T21:18:49.579Z,6.65
2018-11-12T21:21:17.663Z,4.75
2018-11-12T21:23:46.094Z,6.33
2018-11-12T21:26:14.484Z,3.45
2018-11-12T21:28:42.924Z,2.98
2018-11-12T21:31:11.309Z,2.02
2018-11-12T21:33:39.455Z,4.65
2018-11-12T21:36:07.862Z,4.75
2018-11-12T21:38:35.989Z,4.17
2018-11-12T21:41:04.604Z,5.85
2018-11-12T21:43:33.179Z,2.92
2018-11-12T21:46:01.408Z,2.40
2018-11-12T21:48:29.823Z,1.70
2018-11-12T21:50:58.264Z,5.55
2018-11-12T21:53:26.647Z,3.67
2018-11-12T21:55:55.055Z,2.42
2018-11-12T21:58:23.482Z,4.10
2018-11-12T22:00:51.863Z,5.10
2018-11-12T22:03:20.289Z,3.57
2018-11-12T22:05:48.736Z,1.30
2018-11-12T22:08:17.155Z,1.57
2018-11-12T22:10:45.531Z,2.10
2018-11-12T22:13:13.951Z,2.40
2018-11-12T22:15:42.370Z,1.90
2018-11-12T22:18:10.820Z,2.20
2018-11-12T22:20:38.915Z,1.47
2018-11-12T22:23:07.327Z,2.40
2018-11-12T22:25:35.483Z,2.02
2018-11-12T22:28:03.968Z,2.45
2018-11-12T22:30:32.351Z,1.87
2018-11-12T22:33:00.756Z,1.80
2018-11-12T22:35:29.184Z,2.07
2018-11-12T22:37:57.591Z,1.63
2018-11-12T22:40:25.997Z,4.65
2018-11-12T22:42:54.659Z,2.50
2018-11-12T22:45:23.792Z,1.33
2018-11-12T22:47:52.419Z,1.20
2018-11-12T22:50:20.523Z,0.97
2018-11-12T22:52:48.620Z,1.70
2018-11-12T22:55:17.707Z,1.43
2018-11-12T22:57:46.101Z,1.10
2018-11-12T23:00:23.116Z,1.30
2018-11-12T23:02:51.799Z,2.90
2018-11-12T23:05:20.586Z,1.37
2018-11-12T23:07:49.447Z,0.90
2018-11-12T23:10:18.464Z,0.80
2018-11-12T23:12:46.911Z,0.75
2018-11-12T23:15:15.731Z,1.10
2018-11-12T23:17:44.114Z,0.70
2018-11-12T23:20:14.770Z,1.30
2018-11-12T23:22:43.731Z,1.33
2018-11-12T23:25:12.292Z,3.00
2018-11-12T23:27:41.375Z,0.73
2018-11-12T23:30:12.637Z,0.90
2018-11-12T23:32:41.040Z,0.87
2018-11-12T23:35:12.974Z,1.30
2018-11-12T23:37:42.061Z,0.70
2018-11-12T23:40:11.163Z,1.00
2018-11-12T23:42:39.607Z,1.63
2018-11-12T23:45:08.237Z,1.53
2018-11-12T23:47:37.107Z,1.10
2018-11-12T23:50:08.880Z,1.77
2018-11-12T23:52:37.307Z,5.03
2018-11-12T23:55:06.260Z,6.03
2018-11-12T23:57:34.655Z,1.57
